sensor_id;sensor_type;location;lat;lon;timestamp;P1;durP1;ratioP1;P2;durP2;ratioP2
11425;SDS011;5769;47.998;7.788;2023-03-21T00:01:13;9.48;;;2.67;;
11425;SDS011;5769;47.998;7.788;2023-03-21T00:03:40;11.93;;;2.90;;
11425;SDS011;5769;47.998;7.788;2023-03-21T00:06:10;8.25;;;2.67;;
11425;SDS011;5769;47.998;7.788;2023-03-21T00:08:38;15.75;;;3.63;;
11425;SDS011;5769;47.998;7.788;2023-03-21T00:11:06;23.67;;;4.18;;
11425;SDS011;5769;47.998;7.788;2023-03-21T00:13:36;8.02;;;2.58;;
11425;SDS011;5769;47.998;7.788;2023-03-21T00:16:07;17.08;;;3.65;;
11425;SDS011;5769;47.998;7.788;2023-03-21T00:18:39;15.13;;;3.38;;
11425;SDS011;5769;47.998;7.788;2023-03-21T00:21:07;21.25;;;3.67;;
11425;SDS011;5769;47.998;7.788;2023-03-21T00:23:39;18.35;;;3.35;;
11425;SDS011;5769;47.998;7.788;2023-03-21T00:26:07;15.85;;;3.55;;
11425;SDS011;5769;47.998;7.788;2023-03-21T00:28:34;8.82;;;2.53;;
11425;SDS011;5769;47.998;7.788;2023-03-21T00:31:02;8.25;;;2.75;;
11425;SDS011;5769;47.998;7.788;2023-03-21T00:33:29;7.90;;;2.78;;
11425;SDS011;5769;47.998;7.788;2023-03-21T00:35:56;8.82;;;2.72;;
11425;SDS011;5769;47.998;7.788;2023-03-21T00:38:25;8.13;;;2.47;;
11425;SDS011;5769;47.998;7.788;2023-03-21T00:40:52;9.27;;;2.35;;
11425;SDS011;5769;47.998;7.788;2023-03-21T00:43:19;8.70;;;2.35;;
11425;SDS011;5769;47.998;7.788;2023-03-21T00:45:54;9.68;;;2.35;;
11425;SDS011;5769;47.998;7.788;2023-03-21T00:48:22;9.77;;;3.10;;
11425;SDS011;5769;47.998;7.788;2023-03-21T00:50:49;6.93;;;2.50;;
11425;SDS011;5769;47.998;7.788;2023-03-21T00:53:18;8.45;;;2.75;;
11425;SDS011;5769;47.998;7.788;2023-03-21T00:55:47;7.82;;;2.70;;
11425;SDS011;5769;47.998;7.788;2023-03-21T00:58:14;7.30;;;2.45;;
11425;SDS011;5769;47.998;7.788;2023-03-21T01:00:41;13.25;;;2.92;;
11425;SDS011;5769;47.998;7.788;2023-03-21T01:03:10;8.70;;;2.75;;
11425;SDS011;5769;47.998;7.788;2023-03-21T01:05:39;7.18;;;2.47;;
11425;SDS011;5769;47.998;7.788;2023-03-21T01:08:25;7.10;;;2.60;;
11425;SDS011;5769;47.998;7.788;2023-03-21T01:10:54;8.35;;;2.67;;
11425;SDS011;5769;47.998;7.788;2023-03-21T01:13:23;12.52;;;2.88;;
11425;SDS011;5769;47.998;7.788;2023-03-21T01:15:51;8.55;;;2.70;;
11425;SDS011;5769;47.998;7.788;2023-03-21T01:18:20;7.70;;;2.58;;
11425;SDS011;5769;47.998;7.788;2023-03-21T01:20:49;7.88;;;2.60;;
11425;SDS011;5769;47.998;7.788;2023-03-21T01:23:16;10.63;;;2.85;;
11425;SDS011;5769;47.998;7.788;2023-03-21T01:25:43;5.78;;;2.10;;
11425;SDS011;5769;47.998;7.788;2023-03-21T01:28:14;8.43;;;2.40;;
11425;SDS011;5769;47.998;7.788;2023-03-21T01:30:43;7.80;;;2.70;;
11425;SDS011;5769;47.998;7.788;2023-03-21T01:33:11;17.13;;;3.35;;
11425;SDS011;5769;47.998;7.788;2023-03-21T01:35:38;8.90;;;2.67;;
11425;SDS011;5769;47.998;7.788;2023-03-21T01:38:05;8.18;;;2.67;;
11425;SDS011;5769;47.998;7.788;2023-03-21T01:40:37;8.88;;;2.38;;
11425;SDS011;5769;47.998;7.788;2023-03-21T01:43:05;7.55;;;2.25;;
11425;SDS011;5769;47.998;7.788;2023-03-21T01:48:47;9.30;;;2.38;;
11425;SDS011;5769;47.998;7.788;2023-03-21T01:51:16;7.00;;;2.10;;
11425;SDS011;5769;47.998;7.788;2023-03-21T01:53:47;8.30;;;2.38;;
11425;SDS011;5769;47.998;7.788;2023-03-21T01:56:19;7.30;;;2.25;;
11425;SDS011;5769;47.998;7.788;2023-03-21T01:58:52;7.32;;;2.33;;
11425;SDS011;5769;47.998;7.788;2023-03-21T02:01:23;6.70;;;2.10;;
11425;SDS011;5769;47.998;7.788;2023-03-21T02:03:50;7.60;;;2.38;;
11425;SDS011;5769;47.998;7.788;2023-03-21T02:06:26;7.53;;;2.22;;
11425;SDS011;5769;47.998;7.788;2023-03-21T02:08:58;6.35;;;2.03;;
11425;SDS011;5769;47.998;7.788;2023-03-21T02:11:28;7.22;;;2.30;;
11425;SDS011;5769;47.998;7.788;2023-03-21T02:13:59;5.65;;;1.95;;
11425;SDS011;5769;47.998;7.788;2023-03-21T02:16:36;5.38;;;2.00;;
11425;SDS011;5769;47.998;7.788;2023-03-21T02:19:14;5.43;;;2.10;;
11425;SDS011;5769;47.998;7.788;2023-03-21T02:22:04;7.63;;;2.28;;
11425;SDS011;5769;47.998;7.788;2023-03-21T02:28:01;6.80;;;2.30;;
11425;SDS011;5769;47.998;7.788;2023-03-21T02:30:39;5.43;;;2.20;;
11425;SDS011;5769;47.998;7.788;2023-03-21T02:33:30;5.78;;;2.10;;
11425;SDS011;5769;47.998;7.788;2023-03-21T02:36:26;6.63;;;2.03;;
11425;SDS011;5769;47.998;7.788;2023-03-21T02:39:04;20.13;;;3.38;;
11425;SDS011;5769;47.998;7.788;2023-03-21T02:41:39;8.48;;;2.10;;
11425;SDS011;5769;47.998;7.788;2023-03-21T02:44:15;7.70;;;2.15;;
11425;SDS011;5769;47.998;7.788;2023-03-21T02:46:48;7.05;;;2.10;;
11425;SDS011;5769;47.998;7.788;2023-03-21T02:49:19;5.45;;;1.90;;
11425;SDS011;5769;47.998;7.788;2023-03-21T02:51:50;6.28;;;2.38;;
11425;SDS011;5769;47.998;7.788;2023-03-21T02:54:18;6.32;;;1.98;;
11425;SDS011;5769;47.998;7.788;2023-03-21T02:56:50;6.95;;;2.20;;
11425;SDS011;5769;47.998;7.788;2023-03-21T02:59:20;5.47;;;1.90;;
11425;SDS011;5769;47.998;7.788;2023-03-21T03:01:49;7.45;;;2.55;;
11425;SDS011;5769;47.998;7.788;2023-03-21T03:04:17;5.57;;;2.13;;
11425;SDS011;5769;47.998;7.788;2023-03-21T03:06:48;7.57;;;2.08;;
11425;SDS011;5769;47.998;7.788;2023-03-21T03:09:38;7.05;;;2.00;;
11425;SDS011;5769;47.998;7.788;2023-03-21T03:12:20;5.53;;;2.22;;
11425;SDS011;5769;47.998;7.788;2023-03-21T03:14:56;7.15;;;2.30;;
11425;SDS011;5769;47.998;7.788;2023-03-21T03:17:42;15.55;;;3.15;;
11425;SDS011;5769;47.998;7.788;2023-03-21T03:20:23;6.82;;;2.13;;
11425;SDS011;5769;47.998;7.788;2023-03-21T03:22:57;6.13;;;1.98;;
11425;SDS011;5769;47.998;7.788;2023-03-21T03:25:34;6.80;;;2.33;;
11425;SDS011;5769;47.998;7.788;2023-03-21T03:28:06;5.25;;;2.00;;
11425;SDS011;5769;47.998;7.788;2023-03-21T03:30:34;6.68;;;1.90;;
11425;SDS011;5769;47.998;7.788;2023-03-21T03:33:03;6.07;;;2.00;;
11425;SDS011;5769;47.998;7.788;2023-03-21T03:35:33;6.30;;;2.03;;
11425;SDS011;5769;47.998;7.788;2023-03-21T03:38:01;5.88;;;1.90;;
11425;SDS011;5769;47.998;7.788;2023-03-21T03:40:35;4.93;;;1.85;;
11425;SDS011;5769;47.998;7.788;2023-03-21T03:43:06;6.82;;;2.00;;
11425;SDS011;5769;47.998;7.788;2023-03-21T03:45:36;7.93;;;2.17;;
11425;SDS011;5769;47.998;7.788;2023-03-21T03:48:11;5.93;;;2.00;;
11425;SDS011;5769;47.998;7.788;2023-03-21T03:50:42;7.15;;;2.30;;
11425;SDS011;5769;47.998;7.788;2023-03-21T03:53:15;7.03;;;2.00;;
11425;SDS011;5769;47.998;7.788;2023-03-21T03:55:47;4.68;;;1.67;;
11425;SDS011;5769;47.998;7.788;2023-03-21T03:58:16;7.03;;;2.00;;
11425;SDS011;5769;47.998;7.788;2023-03-21T04:00:44;6.20;;;2.05;;
11425;SDS011;5769;47.998;7.788;2023-03-21T04:03:10;4.95;;;1.85;;
11425;SDS011;5769;47.998;7.788;2023-03-21T04:05:38;6.03;;;1.83;;
11425;SDS011;5769;47.998;7.788;2023-03-21T04:08:06;5.05;;;1.83;;
11425;SDS011;5769;47.998;7.788;2023-03-21T04:10:33;6.13;;;2.05;;
11425;SDS011;5769;47.998;7.788;2023-03-21T04:13:01;7.13;;;1.90;;
11425;SDS011;5769;47.998;7.788;2023-03-21T04:15:28;4.43;;;1.83;;
11425;SDS011;5769;47.998;7.788;2023-03-21T04:17:54;5.05;;;1.83;;
11425;SDS011;5769;47.998;7.788;2023-03-21T04:20:22;5.88;;;1.85;;
11425;SDS011;5769;47.998;7.788;2023-03-21T04:22:51;5.75;;;1.73;;
11425;SDS011;5769;47.998;7.788;2023-03-21T04:25:20;4.90;;;2.00;;
11425;SDS011;5769;47.998;7.788;2023-03-21T04:27:47;5.10;;;1.88;;
11425;SDS011;5769;47.998;7.788;2023-03-21T04:30:16;5.10;;;1.58;;
11425;SDS011;5769;47.998;7.788;2023-03-21T04:32:43;4.50;;;1.70;;
11425;SDS011;5769;47.998;7.788;2023-03-21T04:35:20;5.25;;;1.80;;
11425;SDS011;5769;47.998;7.788;2023-03-21T04:37:48;7.60;;;2.10;;
11425;SDS011;5769;47.998;7.788;2023-03-21T04:40:15;4.65;;;1.58;;
11425;SDS011;5769;47.998;7.788;2023-03-21T04:42:43;4.50;;;1.70;;
11425;SDS011;5769;47.998;7.788;2023-03-21T04:45:10;6.38;;;1.75;;
11425;SDS011;5769;47.998;7.788;2023-03-21T04:47:39;5.18;;;1.77;;
11425;SDS011;5769;47.998;7.788;2023-03-21T04:50:07;4.72;;;1.67;;
11425;SDS011;5769;47.998;7.788;2023-03-21T04:52:35;6.22;;;1.90;;
11425;SDS011;5769;47.998;7.788;2023-03-21T04:55:02;5.03;;;1.77;;
11425;SDS011;5769;47.998;7.788;2023-03-21T04:57:34;5.68;;;1.80;;
11425;SDS011;5769;47.998;7.788;2023-03-21T05:00:01;6.68;;;1.95;;
11425;SDS011;5769;47.998;7.788;2023-03-21T05:02:33;5.43;;;1.73;;
11425;SDS011;5769;47.998;7.788;2023-03-21T05:05:01;4.28;;;1.85;;
11425;SDS011;5769;47.998;7.788;2023-03-21T05:07:28;4.38;;;1.80;;
11425;SDS011;5769;47.998;7.788;2023-03-21T05:09:56;4.95;;;1.90;;
11425;SDS011;5769;47.998;7.788;2023-03-21T05:12:23;4.30;;;1.50;;
11425;SDS011;5769;47.998;7.788;2023-03-21T05:14:50;7.07;;;1.83;;
11425;SDS011;5769;47.998;7.788;2023-03-21T05:17:17;5.72;;;1.80;;
11425;SDS011;5769;47.998;7.788;2023-03-21T05:19:47;4.82;;;1.83;;
11425;SDS011;5769;47.998;7.788;2023-03-21T05:22:15;4.22;;;1.60;;
11425;SDS011;5769;47.998;7.788;2023-03-21T05:24:43;5.20;;;1.67;;
11425;SDS011;5769;47.998;7.788;2023-03-21T05:27:15;4.57;;;1.70;;
11425;SDS011;5769;47.998;7.788;2023-03-21T05:29:58;5.75;;;1.80;;
11425;SDS011;5769;47.998;7.788;2023-03-21T05:32:25;3.22;;;1.45;;
11425;SDS011;5769;47.998;7.788;2023-03-21T05:34:52;6.35;;;1.77;;
11425;SDS011;5769;47.998;7.788;2023-03-21T05:37:20;3.47;;;1.67;;
11425;SDS011;5769;47.998;7.788;2023-03-21T05:39:47;3.55;;;1.40;;
11425;SDS011;5769;47.998;7.788;2023-03-21T05:42:14;4.13;;;1.45;;
11425;SDS011;5769;47.998;7.788;2023-03-21T05:44:42;5.47;;;1.80;;
11425;SDS011;5769;47.998;7.788;2023-03-21T05:47:10;4.05;;;1.60;;
11425;SDS011;5769;47.998;7.788;2023-03-21T05:49:37;3.78;;;1.48;;
11425;SDS011;5769;47.998;7.788;2023-03-21T05:52:04;4.28;;;1.70;;
11425;SDS011;5769;47.998;7.788;2023-03-21T05:54:32;4.03;;;1.67;;
11425;SDS011;5769;47.998;7.788;2023-03-21T05:56:59;3.50;;;1.67;;
11425;SDS011;5769;47.998;7.788;2023-03-21T05:59:26;4.72;;;1.48;;
11425;SDS011;5769;47.998;7.788;2023-03-21T06:01:53;4.20;;;1.60;;
11425;SDS011;5769;47.998;7.788;2023-03-21T06:04:19;3.63;;;1.52;;
11425;SDS011;5769;47.998;7.788;2023-03-21T06:06:47;4.80;;;1.50;;
11425;SDS011;5769;47.998;7.788;2023-03-21T06:09:14;3.95;;;1.25;;
11425;SDS011;5769;47.998;7.788;2023-03-21T06:11:45;6.43;;;1.65;;
11425;SDS011;5769;47.998;7.788;2023-03-21T06:14:14;4.82;;;1.58;;
11425;SDS011;5769;47.998;7.788;2023-03-21T06:16:41;3.75;;;1.45;;
11425;SDS011;5769;47.998;7.788;2023-03-21T06:19:09;6.43;;;1.63;;
11425;SDS011;5769;47.998;7.788;2023-03-21T06:21:36;5.25;;;1.83;;
11425;SDS011;5769;47.998;7.788;2023-03-21T06:24:03;3.40;;;1.50;;
11425;SDS011;5769;47.998;7.788;2023-03-21T06:26:30;4.93;;;1.77;;
11425;SDS011;5769;47.998;7.788;2023-03-21T06:28:58;4.40;;;1.63;;
11425;SDS011;5769;47.998;7.788;2023-03-21T06:31:25;4.75;;;1.70;;
11425;SDS011;5769;47.998;7.788;2023-03-21T06:33:52;4.65;;;1.70;;
11425;SDS011;5769;47.998;7.788;2023-03-21T06:36:19;3.80;;;1.60;;
11425;SDS011;5769;47.998;7.788;2023-03-21T06:38:46;3.60;;;1.42;;
11425;SDS011;5769;47.998;7.788;2023-03-21T06:41:13;4.07;;;1.60;;
11425;SDS011;5769;47.998;7.788;2023-03-21T06:43:40;5.25;;;1.55;;
11425;SDS011;5769;47.998;7.788;2023-03-21T06:46:08;4.22;;;1.50;;
11425;SDS011;5769;47.998;7.788;2023-03-21T06:48:36;4.63;;;1.60;;
11425;SDS011;5769;47.998;7.788;2023-03-21T06:51:08;4.15;;;1.50;;
11425;SDS011;5769;47.998;7.788;2023-03-21T06:53:36;4.55;;;1.50;;
11425;SDS011;5769;47.998;7.788;2023-03-21T06:56:03;4.35;;;1.52;;
11425;SDS011;5769;47.998;7.788;2023-03-21T06:58:30;3.28;;;1.58;;
11425;SDS011;5769;47.998;7.788;2023-03-21T07:00:57;4.47;;;1.55;;
11425;SDS011;5769;47.998;7.788;2023-03-21T07:03:28;3.67;;;1.50;;
11425;SDS011;5769;47.998;7.788;2023-03-21T07:05:55;3.55;;;1.38;;
11425;SDS011;5769;47.998;7.788;2023-03-21T07:08:22;3.78;;;1.27;;
11425;SDS011;5769;47.998;7.788;2023-03-21T07:10:50;4.32;;;1.50;;
11425;SDS011;5769;47.998;7.788;2023-03-21T07:13:22;3.75;;;1.42;;
11425;SDS011;5769;47.998;7.788;2023-03-21T07:15:49;5.32;;;1.60;;
11425;SDS011;5769;47.998;7.788;2023-03-21T07:18:17;2.97;;;1.27;;
11425;SDS011;5769;47.998;7.788;2023-03-21T07:20:46;3.97;;;1.25;;
11425;SDS011;5769;47.998;7.788;2023-03-21T07:23:15;3.33;;;1.30;;
11425;SDS011;5769;47.998;7.788;2023-03-21T07:25:42;3.83;;;1.33;;
11425;SDS011;5769;47.998;7.788;2023-03-21T07:28:09;3.55;;;1.17;;
11425;SDS011;5769;47.998;7.788;2023-03-21T07:30:36;4.45;;;1.40;;
11425;SDS011;5769;47.998;7.788;2023-03-21T07:33:03;4.13;;;1.23;;
11425;SDS011;5769;47.998;7.788;2023-03-21T07:35:31;2.92;;;1.30;;
11425;SDS011;5769;47.998;7.788;2023-03-21T07:37:59;4.55;;;1.52;;
11425;SDS011;5769;47.998;7.788;2023-03-21T07:40:26;3.63;;;1.50;;
11425;SDS011;5769;47.998;7.788;2023-03-21T07:42:53;3.25;;;1.20;;
11425;SDS011;5769;47.998;7.788;2023-03-21T07:45:19;3.40;;;1.20;;
11425;SDS011;5769;47.998;7.788;2023-03-21T07:47:49;3.10;;;1.23;;
11425;SDS011;5769;47.998;7.788;2023-03-21T07:50:16;4.10;;;1.20;;
11425;SDS011;5769;47.998;7.788;2023-03-21T07:52:43;2.47;;;1.05;;
11425;SDS011;5769;47.998;7.788;2023-03-21T07:55:12;4.13;;;1.60;;
11425;SDS011;5769;47.998;7.788;2023-03-21T07:57:41;3.60;;;1.35;;
11425;SDS011;5769;47.998;7.788;2023-03-21T08:00:08;3.30;;;1.20;;
11425;SDS011;5769;47.998;7.788;2023-03-21T08:02:36;4.35;;;1.30;;
11425;SDS011;5769;47.998;7.788;2023-03-21T08:05:03;6.53;;;1.38;;
11425;SDS011;5769;47.998;7.788;2023-03-21T08:07:30;2.50;;;1.30;;
11425;SDS011;5769;47.998;7.788;2023-03-21T08:09:57;3.97;;;1.30;;
11425;SDS011;5769;47.998;7.788;2023-03-21T08:12:26;2.70;;;1.10;;
11425;SDS011;5769;47.998;7.788;2023-03-21T08:14:53;3.97;;;1.20;;
11425;SDS011;5769;47.998;7.788;2023-03-21T08:17:20;4.60;;;1.35;;
11425;SDS011;5769;47.998;7.788;2023-03-21T08:19:46;2.65;;;1.20;;
11425;SDS011;5769;47.998;7.788;2023-03-21T08:22:13;3.15;;;1.25;;
11425;SDS011;5769;47.998;7.788;2023-03-21T08:24:40;5.55;;;1.48;;
11425;SDS011;5769;47.998;7.788;2023-03-21T08:27:07;2.33;;;1.15;;
11425;SDS011;5769;47.998;7.788;2023-03-21T08:29:35;4.30;;;1.23;;
11425;SDS011;5769;47.998;7.788;2023-03-21T08:32:06;2.40;;;0.98;;
11425;SDS011;5769;47.998;7.788;2023-03-21T08:34:33;3.95;;;1.38;;
11425;SDS011;5769;47.998;7.788;2023-03-21T08:37:00;2.42;;;1.10;;
11425;SDS011;5769;47.998;7.788;2023-03-21T08:39:27;3.13;;;1.25;;
11425;SDS011;5769;47.998;7.788;2023-03-21T08:41:55;3.55;;;1.10;;
11425;SDS011;5769;47.998;7.788;2023-03-21T08:44:22;2.55;;;1.00;;
11425;SDS011;5769;47.998;7.788;2023-03-21T08:46:51;2.88;;;1.10;;
11425;SDS011;5769;47.998;7.788;2023-03-21T08:49:18;5.78;;;1.55;;
11425;SDS011;5769;47.998;7.788;2023-03-21T08:51:44;2.83;;;1.10;;
11425;SDS011;5769;47.998;7.788;2023-03-21T08:54:16;3.15;;;1.10;;
11425;SDS011;5769;47.998;7.788;2023-03-21T08:56:45;2.95;;;1.20;;
11425;SDS011;5769;47.998;7.788;2023-03-21T08:59:12;3.58;;;1.23;;
11425;SDS011;5769;47.998;7.788;2023-03-21T09:01:39;2.35;;;1.00;;
11425;SDS011;5769;47.998;7.788;2023-03-21T09:04:07;2.75;;;1.15;;
11425;SDS011;5769;47.998;7.788;2023-03-21T09:06:35;2.38;;;1.00;;
11425;SDS011;5769;47.998;7.788;2023-03-21T09:09:01;3.45;;;1.20;;
11425;SDS011;5769;47.998;7.788;2023-03-21T09:11:29;2.58;;;0.90;;
11425;SDS011;5769;47.998;7.788;2023-03-21T09:13:59;2.15;;;0.90;;
11425;SDS011;5769;47.998;7.788;2023-03-21T09:16:27;2.55;;;1.10;;
11425;SDS011;5769;47.998;7.788;2023-03-21T09:18:57;2.30;;;1.08;;
11425;SDS011;5769;47.998;7.788;2023-03-21T09:21:26;2.30;;;1.00;;
11425;SDS011;5769;47.998;7.788;2023-03-21T09:23:53;2.70;;;0.90;;
11425;SDS011;5769;47.998;7.788;2023-03-21T09:26:23;2.78;;;1.10;;
11425;SDS011;5769;47.998;7.788;2023-03-21T09:28:51;2.25;;;1.00;;
11425;SDS011;5769;47.998;7.788;2023-03-21T09:31:19;2.58;;;0.98;;
11425;SDS011;5769;47.998;7.788;2023-03-21T09:33:47;2.50;;;1.05;;
11425;SDS011;5769;47.998;7.788;2023-03-21T09:36:14;2.13;;;0.98;;
11425;SDS011;5769;47.998;7.788;2023-03-21T09:38:45;1.95;;;1.00;;
11425;SDS011;5769;47.998;7.788;2023-03-21T09:41:16;1.52;;;0.98;;
11425;SDS011;5769;47.998;7.788;2023-03-21T09:43:56;2.20;;;1.00;;
11425;SDS011;5769;47.998;7.788;2023-03-21T09:46:33;2.85;;;1.02;;
11425;SDS011;5769;47.998;7.788;2023-03-21T09:49:06;2.30;;;0.90;;
11425;SDS011;5769;47.998;7.788;2023-03-21T09:51:38;3.25;;;1.08;;
11425;SDS011;5769;47.998;7.788;2023-03-21T09:54:10;2.13;;;1.00;;
11425;SDS011;5769;47.998;7.788;2023-03-21T09:56:42;2.25;;;1.02;;
11425;SDS011;5769;47.998;7.788;2023-03-21T09:59:13;2.72;;;1.00;;
11425;SDS011;5769;47.998;7.788;2023-03-21T10:01:49;3.22;;;1.17;;
11425;SDS011;5769;47.998;7.788;2023-03-21T10:04:16;2.65;;;0.90;;
11425;SDS011;5769;47.998;7.788;2023-03-21T10:06:46;2.35;;;1.13;;
11425;SDS011;5769;47.998;7.788;2023-03-21T10:09:22;2.80;;;1.00;;
11425;SDS011;5769;47.998;7.788;2023-03-21T10:11:58;2.78;;;1.00;;
11425;SDS011;5769;47.998;7.788;2023-03-21T10:14:28;3.00;;;0.80;;
11425;SDS011;5769;47.998;7.788;2023-03-21T10:17:00;3.10;;;1.00;;
11425;SDS011;5769;47.998;7.788;2023-03-21T10:19:32;3.03;;;1.00;;
11425;SDS011;5769;47.998;7.788;2023-03-21T10:21:58;2.47;;;0.93;;
11425;SDS011;5769;47.998;7.788;2023-03-21T10:24:27;15.68;;;2.10;;
11425;SDS011;5769;47.998;7.788;2023-03-21T10:26:56;2.47;;;0.93;;
11425;SDS011;5769;47.998;7.788;2023-03-21T10:29:25;2.83;;;1.00;;
11425;SDS011;5769;47.998;7.788;2023-03-21T10:31:56;2.40;;;0.88;;
11425;SDS011;5769;47.998;7.788;2023-03-21T10:34:26;2.58;;;0.93;;
11425;SDS011;5769;47.998;7.788;2023-03-21T10:36:57;2.00;;;0.90;;
11425;SDS011;5769;47.998;7.788;2023-03-21T10:39:30;2.65;;;0.95;;
11425;SDS011;5769;47.998;7.788;2023-03-21T10:41:59;2.38;;;1.00;;
11425;SDS011;5769;47.998;7.788;2023-03-21T10:44:28;1.80;;;0.90;;
11425;SDS011;5769;47.998;7.788;2023-03-21T10:46:57;2.75;;;1.00;;
11425;SDS011;5769;47.998;7.788;2023-03-21T10:49:28;2.45;;;0.90;;
11425;SDS011;5769;47.998;7.788;2023-03-21T10:51:58;3.50;;;1.05;;
11425;SDS011;5769;47.998;7.788;2023-03-21T10:54:31;3.33;;;1.00;;
11425;SDS011;5769;47.998;7.788;2023-03-21T10:57:00;1.55;;;0.85;;
11425;SDS011;5769;47.998;7.788;2023-03-21T10:59:34;2.03;;;0.70;;
11425;SDS011;5769;47.998;7.788;2023-03-21T11:02:04;1.50;;;0.85;;
11425;SDS011;5769;47.998;7.788;2023-03-21T11:04:32;1.85;;;0.90;;
11425;SDS011;5769;47.998;7.788;2023-03-21T11:07:02;2.75;;;0.90;;
11425;SDS011;5769;47.998;7.788;2023-03-21T11:09:43;2.25;;;0.85;;
11425;SDS011;5769;47.998;7.788;2023-03-21T11:12:12;1.85;;;0.93;;
11425;SDS011;5769;47.998;7.788;2023-03-21T11:14:42;1.90;;;1.00;;
11425;SDS011;5769;47.998;7.788;2023-03-21T11:17:20;1.80;;;0.88;;
11425;SDS011;5769;47.998;7.788;2023-03-21T11:19:49;1.83;;;0.73;;
11425;SDS011;5769;47.998;7.788;2023-03-21T11:22:18;1.50;;;0.70;;
11425;SDS011;5769;47.998;7.788;2023-03-21T11:24:49;1.50;;;0.73;;
11425;SDS011;5769;47.998;7.788;2023-03-21T11:27:18;1.73;;;0.85;;
11425;SDS011;5769;47.998;7.788;2023-03-21T11:29:49;2.10;;;0.82;;
11425;SDS011;5769;47.998;7.788;2023-03-21T11:32:19;1.95;;;0.70;;
11425;SDS011;5769;47.998;7.788;2023-03-21T11:34:50;2.67;;;1.00;;
11425;SDS011;5769;47.998;7.788;2023-03-21T11:37:24;1.52;;;0.80;;
11425;SDS011;5769;47.998;7.788;2023-03-21T11:40:04;1.95;;;0.90;;
11425;SDS011;5769;47.998;7.788;2023-03-21T11:42:41;2.10;;;0.88;;
11425;SDS011;5769;47.998;7.788;2023-03-21T11:45:12;1.30;;;0.68;;
11425;SDS011;5769;47.998;7.788;2023-03-21T11:47:41;1.55;;;0.80;;
11425;SDS011;5769;47.998;7.788;2023-03-21T11:50:20;2.25;;;0.80;;
11425;SDS011;5769;47.998;7.788;2023-03-21T11:53:10;1.45;;;0.60;;
11425;SDS011;5769;47.998;7.788;2023-03-21T11:55:50;2.28;;;1.00;;
11425;SDS011;5769;47.998;7.788;2023-03-21T11:58:31;2.95;;;0.90;;
11425;SDS011;5769;47.998;7.788;2023-03-21T12:01:06;2.63;;;0.80;;
11425;SDS011;5769;47.998;7.788;2023-03-21T12:03:46;1.67;;;0.70;;
11425;SDS011;5769;47.998;7.788;2023-03-21T12:06:21;1.88;;;0.82;;
11425;SDS011;5769;47.998;7.788;2023-03-21T12:08:57;1.85;;;0.88;;
11425;SDS011;5769;47.998;7.788;2023-03-21T12:11:38;1.60;;;0.75;;
11425;SDS011;5769;47.998;7.788;2023-03-21T12:14:16;1.73;;;0.60;;
11425;SDS011;5769;47.998;7.788;2023-03-21T12:16:53;2.00;;;0.90;;
11425;SDS011;5769;47.998;7.788;2023-03-21T12:22:32;2.25;;;0.73;;
11425;SDS011;5769;47.998;7.788;2023-03-21T12:25:10;1.83;;;0.75;;
11425;SDS011;5769;47.998;7.788;2023-03-21T12:27:44;1.42;;;0.60;;
11425;SDS011;5769;47.998;7.788;2023-03-21T12:30:27;1.23;;;0.60;;
11425;SDS011;5769;47.998;7.788;2023-03-21T12:33:04;1.20;;;0.57;;
11425;SDS011;5769;47.998;7.788;2023-03-21T12:35:43;3.75;;;1.02;;
11425;SDS011;5769;47.998;7.788;2023-03-21T12:38:19;1.73;;;0.80;;
11425;SDS011;5769;47.998;7.788;2023-03-21T12:40:57;1.35;;;0.80;;
11425;SDS011;5769;47.998;7.788;2023-03-21T12:46:26;1.48;;;0.70;;
11425;SDS011;5769;47.998;7.788;2023-03-21T12:49:00;1.55;;;0.73;;
11425;SDS011;5769;47.998;7.788;2023-03-21T12:51:35;2.42;;;0.80;;
11425;SDS011;5769;47.998;7.788;2023-03-21T12:54:12;1.83;;;0.80;;
11425;SDS011;5769;47.998;7.788;2023-03-21T12:56:46;1.90;;;0.75;;
11425;SDS011;5769;47.998;7.788;2023-03-21T12:59:21;1.40;;;0.65;;
11425;SDS011;5769;47.998;7.788;2023-03-21T13:01:57;1.88;;;0.70;;
11425;SDS011;5769;47.998;7.788;2023-03-21T13:04:40;1.90;;;0.82;;
11425;SDS011;5769;47.998;7.788;2023-03-21T13:07:13;1.85;;;0.60;;
11425;SDS011;5769;47.998;7.788;2023-03-21T13:09:44;2.50;;;0.65;;
11425;SDS011;5769;47.998;7.788;2023-03-21T13:12:18;1.90;;;0.47;;
11425;SDS011;5769;47.998;7.788;2023-03-21T13:15:04;0.93;;;0.70;;
11425;SDS011;5769;47.998;7.788;2023-03-21T13:17:40;1.73;;;0.70;;
11425;SDS011;5769;47.998;7.788;2023-03-21T13:20:13;2.22;;;0.82;;
11425;SDS011;5769;47.998;7.788;2023-03-21T13:22:47;2.10;;;0.60;;
11425;SDS011;5769;47.998;7.788;2023-03-21T13:25:16;0.90;;;0.60;;
11425;SDS011;5769;47.998;7.788;2023-03-21T13:27:50;1.58;;;0.70;;
11425;SDS011;5769;47.998;7.788;2023-03-21T13:30:21;1.65;;;0.55;;
11425;SDS011;5769;47.998;7.788;2023-03-21T13:32:54;2.08;;;0.68;;
11425;SDS011;5769;47.998;7.788;2023-03-21T13:35:33;1.40;;;0.60;;
11425;SDS011;5769;47.998;7.788;2023-03-21T13:38:09;1.52;;;0.68;;
11425;SDS011;5769;47.998;7.788;2023-03-21T13:40:41;1.40;;;0.68;;
11425;SDS011;5769;47.998;7.788;2023-03-21T13:46:10;1.63;;;0.80;;
11425;SDS011;5769;47.998;7.788;2023-03-21T13:48:43;0.82;;;0.68;;
11425;SDS011;5769;47.998;7.788;2023-03-21T13:51:36;0.82;;;0.50;;
11425;SDS011;5769;47.998;7.788;2023-03-21T13:54:15;1.52;;;0.70;;
11425;SDS011;5769;47.998;7.788;2023-03-21T13:56:52;1.00;;;0.60;;
11425;SDS011;5769;47.998;7.788;2023-03-21T13:59:35;1.88;;;0.70;;
11425;SDS011;5769;47.998;7.788;2023-03-21T14:05:01;1.70;;;0.77;;
11425;SDS011;5769;47.998;7.788;2023-03-21T14:07:30;1.35;;;0.63;;
11425;SDS011;5769;47.998;7.788;2023-03-21T14:09:59;1.58;;;0.63;;
11425;SDS011;5769;47.998;7.788;2023-03-21T14:12:29;0.95;;;0.60;;
11425;SDS011;5769;47.998;7.788;2023-03-21T14:15:03;1.13;;;0.65;;
11425;SDS011;5769;47.998;7.788;2023-03-21T14:17:34;1.70;;;0.70;;
11425;SDS011;5769;47.998;7.788;2023-03-21T14:20:03;1.58;;;0.75;;
11425;SDS011;5769;47.998;7.788;2023-03-21T14:22:36;2.08;;;0.77;;
11425;SDS011;5769;47.998;7.788;2023-03-21T14:25:05;2.00;;;0.50;;
11425;SDS011;5769;47.998;7.788;2023-03-21T14:27:33;1.75;;;0.60;;
11425;SDS011;5769;47.998;7.788;2023-03-21T14:30:03;0.90;;;0.60;;
11425;SDS011;5769;47.998;7.788;2023-03-21T14:32:30;1.55;;;0.60;;
11425;SDS011;5769;47.998;7.788;2023-03-21T14:34:59;1.45;;;0.60;;
11425;SDS011;5769;47.998;7.788;2023-03-21T14:37:27;0.63;;;0.45;;
11425;SDS011;5769;47.998;7.788;2023-03-21T14:39:58;1.98;;;0.80;;
11425;SDS011;5769;47.998;7.788;2023-03-21T14:42:25;1.92;;;0.70;;
11425;SDS011;5769;47.998;7.788;2023-03-21T14:44:53;2.17;;;0.50;;
11425;SDS011;5769;47.998;7.788;2023-03-21T14:47:25;1.70;;;0.57;;
11425;SDS011;5769;47.998;7.788;2023-03-21T14:49:52;1.58;;;0.60;;
11425;SDS011;5769;47.998;7.788;2023-03-21T14:52:22;1.27;;;0.60;;
11425;SDS011;5769;47.998;7.788;2023-03-21T14:54:50;1.80;;;0.75;;
11425;SDS011;5769;47.998;7.788;2023-03-21T14:57:19;0.75;;;0.50;;
11425;SDS011;5769;47.998;7.788;2023-03-21T14:59:47;0.65;;;0.50;;
11425;SDS011;5769;47.998;7.788;2023-03-21T15:02:24;2.30;;;0.60;;
11425;SDS011;5769;47.998;7.788;2023-03-21T15:04:53;1.10;;;0.52;;
11425;SDS011;5769;47.998;7.788;2023-03-21T15:07:27;1.75;;;0.60;;
11425;SDS011;5769;47.998;7.788;2023-03-21T15:09:59;2.40;;;0.80;;
11425;SDS011;5769;47.998;7.788;2023-03-21T15:12:31;2.08;;;0.70;;
11425;SDS011;5769;47.998;7.788;2023-03-21T15:15:04;1.10;;;0.52;;
11425;SDS011;5769;47.998;7.788;2023-03-21T15:17:32;2.13;;;0.70;;
11425;SDS011;5769;47.998;7.788;2023-03-21T15:20:02;2.28;;;0.70;;
11425;SDS011;5769;47.998;7.788;2023-03-21T15:22:41;2.30;;;0.55;;
11425;SDS011;5769;47.998;7.788;2023-03-21T15:25:16;2.47;;;0.73;;
11425;SDS011;5769;47.998;7.788;2023-03-21T15:27:46;1.60;;;0.70;;
11425;SDS011;5769;47.998;7.788;2023-03-21T15:30:18;2.95;;;0.82;;
11425;SDS011;5769;47.998;7.788;2023-03-21T15:32:46;2.15;;;0.73;;
11425;SDS011;5769;47.998;7.788;2023-03-21T15:35:26;3.78;;;0.63;;
11425;SDS011;5769;47.998;7.788;2023-03-21T15:38:01;2.15;;;0.70;;
11425;SDS011;5769;47.998;7.788;2023-03-21T15:40:31;1.10;;;0.60;;